CNQ3 weather

Niagara Central Dorothy Rungeling Airport
Welland, Ontario, Canada

Public forecast

Using degrees Celsius for public forecast. Weather courtesy of forecast.io.

Closest aviation weather report (METAR) to Niagara Central Dorothy Rungeling Airport

Closest report is Niagara District Airport, 14.4 nm (26.7 km) NNE. Retrieved 2019/10/17 01:00 UTC (23 minutes ago):

CYSN 170100Z 23007KT 15SM OVC055 09/08 A2949 RMK SC8 LAST STFD OBS / NEXT 171100 UTC SLP988

Closest aviation forecast (TAF) to Niagara Central Dorothy Rungeling Airport

Closest forecast is Niagara District Airport, 14.4 nm (26.7 km) NNE. Retrieved 2019/10/16 20:00 UTC (5 hours ago):

TAF CYSN 161938Z 1620/1701 26008KT 6SM -RA SCT012 OVC025 TEMPO 1620/1621 4SM -RA BR SCT007 BKN020 OVC040 FM162100 26010KT P6SM OVC020 TEMPO 1621/1701 SCT020 OVC030 RMK NXT FCST WILL BE ISSUED AT 171245Z